This is the latest recevied weather packets stored in our database for station/object OK1VCF-5. If no packets are shown the sender has not sent any weather packets the latest 10 day(s).
| Time | Temp. | Humidity | Pressure | Rain* | Wind** | Luminosity | Snow |
|---|---|---|---|---|---|---|---|
| 1777703150 | 12.22° C | 64% | 1030.1 hPa | - | - | - | - |
| 1777701350 | 8.89° C | 72% | 1030.3 hPa | - | - | - | - |
| 1777698644 | 5.56° C | 82% | 1030.6 hPa | - | - | - | - |
| 1777697742 | 4.44° C | 86% | 1030.6 hPa | - | - | - | - |
| 1777696843 | 3.33° C | 88% | 1030.6 hPa | - | - | - | - |
| 1777695942 | 3.33° C | 89% | 1030.6 hPa | - | - | - | - |
| 1777695042 | 2.78° C | 89% | 1030.4 hPa | - | - | - | - |
| 1777695041 | 2.78° C | 89% | 1030.4 hPa | - | - | - | - |
| 1777694141 | 2.78° C | 90% | 1030.4 hPa | - | - | - | - |
| 1777693242 | 2.78° C | 90% | 1030.4 hPa | - | - | - | - |
| 1777692342 | 2.78° C | 90% | 1030.6 hPa | - | - | - | - |
| 1777691440 | 2.78° C | 89% | 1030.6 hPa | - | - | - | - |
| 1777690540 | 2.78° C | 89% | 1030.6 hPa | - | - | - | - |
| 1777688737 | 3.33° C | 86% | 1030.6 hPa | - | - | - | - |
| 1777687836 | 3.33° C | 88% | 1030.6 hPa | - | - | - | - |
| 1777686933 | 3.33° C | 87% | 1030.6 hPa | - | - | - | - |
| 1777686032 | 3.89° C | 86% | 1030.5 hPa | - | - | - | - |
| 1777685133 | 3.89° C | 86% | 1030.6 hPa | - | - | - | - |
| 1777684233 | 3.89° C | 86% | 1030.8 hPa | - | - | - | - |
| 1777683332 | 4.44° C | 86% | 1030.9 hPa | - | - | - | - |
| 1777682431 | 4.44° C | 86% | 1031 hPa | - | - | - | - |
| 1777681530 | 4.44° C | 86% | 1031 hPa | - | - | - | - |
| 1777680628 | 4.44° C | 84% | 1031 hPa | - | - | - | - |
| 1777679727 | 5° C | 84% | 1031.1 hPa | - | - | - | - |
| 1777677927 | 5.56° C | 82% | 1031 hPa | - | - | - | - |
* Rain since midnight (hover to see other rain measurements)
** Current wind speed in m/s (hover to see current wind gust speed)